sensor_id;sensor_type;location;lat;lon;timestamp;P1;P2;P0
69123;PMS5003;56232;53.384;-2.732;2023-01-29T00:01:17;32;32;
69123;PMS5003;56232;53.384;-2.732;2023-01-29T00:03:42;31;31;
69123;PMS5003;56232;53.384;-2.732;2023-01-29T00:06:08;26;26;
69123;PMS5003;56232;53.384;-2.732;2023-01-29T00:08:33;29;29;
69123;PMS5003;56232;53.384;-2.732;2023-01-29T00:10:59;25;25;
69123;PMS5003;56232;53.384;-2.732;2023-01-29T00:13:23;28;27;
69123;PMS5003;56232;53.384;-2.732;2023-01-29T00:15:52;25;25;
69123;PMS5003;56232;53.384;-2.732;2023-01-29T00:18:14;23;23;
69123;PMS5003;56232;53.384;-2.732;2023-01-29T00:20:41;25;25;
69123;PMS5003;56232;53.384;-2.732;2023-01-29T00:23:04;25;22;
69123;PMS5003;56232;53.384;-2.732;2023-01-29T00:25:30;26;22;
69123;PMS5003;56232;53.384;-2.732;2023-01-29T00:27:55;20;20;
69123;PMS5003;56232;53.384;-2.732;2023-01-29T00:30:20;25;23;
69123;PMS5003;56232;53.384;-2.732;2023-01-29T00:32:46;30;24;
69123;PMS5003;56232;53.384;-2.732;2023-01-29T00:35:12;23;22;
69123;PMS5003;56232;53.384;-2.732;2023-01-29T00:37:37;24;24;
69123;PMS5003;56232;53.384;-2.732;2023-01-29T00:40:03;26;22;
69123;PMS5003;56232;53.384;-2.732;2023-01-29T00:42:28;25;25;
69123;PMS5003;56232;53.384;-2.732;2023-01-29T00:44:53;28;28;
69123;PMS5003;56232;53.384;-2.732;2023-01-29T00:47:23;25;25;
69123;PMS5003;56232;53.384;-2.732;2023-01-29T00:49:48;24;23;
69123;PMS5003;56232;53.384;-2.732;2023-01-29T00:52:09;31;26;
69123;PMS5003;56232;53.384;-2.732;2023-01-29T00:54:39;24;24;
69123;PMS5003;56232;53.384;-2.732;2023-01-29T00:56:59;25;24;
69123;PMS5003;56232;53.384;-2.732;2023-01-29T00:59:24;33;32;
69123;PMS5003;56232;53.384;-2.732;2023-01-29T01:01:55;26;25;
69123;PMS5003;56232;53.384;-2.732;2023-01-29T01:04:16;30;28;
69123;PMS5003;56232;53.384;-2.732;2023-01-29T01:06:41;34;30;
69123;PMS5003;56232;53.384;-2.732;2023-01-29T01:09:07;27;26;
69123;PMS5003;56232;53.384;-2.732;2023-01-29T01:11:32;27;26;
69123;PMS5003;56232;53.384;-2.732;2023-01-29T01:14:03;27;26;
69123;PMS5003;56232;53.384;-2.732;2023-01-29T01:16:23;25;25;
69123;PMS5003;56232;53.384;-2.732;2023-01-29T01:18:49;26;25;
69123;PMS5003;56232;53.384;-2.732;2023-01-29T01:21:15;24;22;
69123;PMS5003;56232;53.384;-2.732;2023-01-29T01:23:39;27;25;
69123;PMS5003;56232;53.384;-2.732;2023-01-29T01:26:07;20;20;
69123;PMS5003;56232;53.384;-2.732;2023-01-29T01:28:31;29;26;
69123;PMS5003;56232;53.384;-2.732;2023-01-29T01:30:56;29;27;
69123;PMS5003;56232;53.384;-2.732;2023-01-29T01:33:22;22;22;
69123;PMS5003;56232;53.384;-2.732;2023-01-29T01:35:48;21;21;
69123;PMS5003;56232;53.384;-2.732;2023-01-29T01:38:13;24;21;
69123;PMS5003;56232;53.384;-2.732;2023-01-29T01:40:44;21;21;
69123;PMS5003;56232;53.384;-2.732;2023-01-29T01:43:04;22;21;
69123;PMS5003;56232;53.384;-2.732;2023-01-29T01:45:31;21;20;
69123;PMS5003;56232;53.384;-2.732;2023-01-29T01:47:57;20;19;
69123;PMS5003;56232;53.384;-2.732;2023-01-29T01:50:22;25;23;
69123;PMS5003;56232;53.384;-2.732;2023-01-29T01:52:52;25;21;
69123;PMS5003;56232;53.384;-2.732;2023-01-29T01:55:13;24;23;
69123;PMS5003;56232;53.384;-2.732;2023-01-29T01:57:38;23;22;
69123;PMS5003;56232;53.384;-2.732;2023-01-29T02:00:09;19;18;
69123;PMS5003;56232;53.384;-2.732;2023-01-29T02:02:29;18;18;
69123;PMS5003;56232;53.384;-2.732;2023-01-29T02:04:54;19;18;
69123;PMS5003;56232;53.384;-2.732;2023-01-29T02:07:19;22;21;
69123;PMS5003;56232;53.384;-2.732;2023-01-29T02:09:47;16;16;
69123;PMS5003;56232;53.384;-2.732;2023-01-29T02:12:11;17;15;
69123;PMS5003;56232;53.384;-2.732;2023-01-29T02:14:41;16;16;
69123;PMS5003;56232;53.384;-2.732;2023-01-29T02:17:02;14;14;
69123;PMS5003;56232;53.384;-2.732;2023-01-29T02:19:31;17;17;
69123;PMS5003;56232;53.384;-2.732;2023-01-29T02:22:02;17;16;
69123;PMS5003;56232;53.384;-2.732;2023-01-29T02:26:49;14;13;
69123;PMS5003;56232;53.384;-2.732;2023-01-29T02:29:11;11;11;
69123;PMS5003;56232;53.384;-2.732;2023-01-29T02:31:38;13;12;
69123;PMS5003;56232;53.384;-2.732;2023-01-29T02:34:05;11;11;
69123;PMS5003;56232;53.384;-2.732;2023-01-29T02:36:30;11;11;
69123;PMS5003;56232;53.384;-2.732;2023-01-29T02:38:56;12;12;
69123;PMS5003;56232;53.384;-2.732;2023-01-29T02:41:21;10;10;
69123;PMS5003;56232;53.384;-2.732;2023-01-29T02:43:45;11;10;
69123;PMS5003;56232;53.384;-2.732;2023-01-29T02:46:11;11;10;
69123;PMS5003;56232;53.384;-2.732;2023-01-29T02:48:38;13;12;
69123;PMS5003;56232;53.384;-2.732;2023-01-29T02:51:03;8;7;
69123;PMS5003;56232;53.384;-2.732;2023-01-29T02:53:28;9;8;
69123;PMS5003;56232;53.384;-2.732;2023-01-29T02:55:54;7;7;
69123;PMS5003;56232;53.384;-2.732;2023-01-29T02:58:20;9;9;
69123;PMS5003;56232;53.384;-2.732;2023-01-29T03:00:45;9;8;
69123;PMS5003;56232;53.384;-2.732;2023-01-29T03:03:11;9;9;
69123;PMS5003;56232;53.384;-2.732;2023-01-29T03:05:37;9;8;
69123;PMS5003;56232;53.384;-2.732;2023-01-29T03:08:03;7;7;
69123;PMS5003;56232;53.384;-2.732;2023-01-29T03:10:29;7;7;
69123;PMS5003;56232;53.384;-2.732;2023-01-29T03:12:53;9;9;
69123;PMS5003;56232;53.384;-2.732;2023-01-29T03:15:19;9;9;
69123;PMS5003;56232;53.384;-2.732;2023-01-29T03:17:44;10;9;
69123;PMS5003;56232;53.384;-2.732;2023-01-29T03:20:11;7;7;
69123;PMS5003;56232;53.384;-2.732;2023-01-29T03:22:35;8;8;
69123;PMS5003;56232;53.384;-2.732;2023-01-29T03:25:01;7;7;
69123;PMS5003;56232;53.384;-2.732;2023-01-29T03:27:27;9;9;
69123;PMS5003;56232;53.384;-2.732;2023-01-29T03:29:52;9;9;
69123;PMS5003;56232;53.384;-2.732;2023-01-29T03:32:18;8;7;
69123;PMS5003;56232;53.384;-2.732;2023-01-29T03:34:45;7;7;
69123;PMS5003;56232;53.384;-2.732;2023-01-29T03:37:10;8;8;
69123;PMS5003;56232;53.384;-2.732;2023-01-29T03:39:35;8;8;
69123;PMS5003;56232;53.384;-2.732;2023-01-29T03:42:01;7;7;
69123;PMS5003;56232;53.384;-2.732;2023-01-29T03:44:29;8;8;
69123;PMS5003;56232;53.384;-2.732;2023-01-29T03:46:54;9;8;
69123;PMS5003;56232;53.384;-2.732;2023-01-29T03:49:20;9;8;
69123;PMS5003;56232;53.384;-2.732;2023-01-29T03:51:46;9;9;
69123;PMS5003;56232;53.384;-2.732;2023-01-29T03:54:14;9;9;
69123;PMS5003;56232;53.384;-2.732;2023-01-29T03:56:38;9;7;
69123;PMS5003;56232;53.384;-2.732;2023-01-29T03:59:01;6;6;
69123;PMS5003;56232;53.384;-2.732;2023-01-29T04:01:28;8;8;
69123;PMS5003;56232;53.384;-2.732;2023-01-29T04:03:52;7;6;
69123;PMS5003;56232;53.384;-2.732;2023-01-29T04:06:19;8;8;
69123;PMS5003;56232;53.384;-2.732;2023-01-29T04:08:45;6;6;
69123;PMS5003;56232;53.384;-2.732;2023-01-29T04:11:11;5;5;
69123;PMS5003;56232;53.384;-2.732;2023-01-29T04:13:35;5;5;
69123;PMS5003;56232;53.384;-2.732;2023-01-29T04:16:00;6;5;
69123;PMS5003;56232;53.384;-2.732;2023-01-29T04:18:26;4;4;
69123;PMS5003;56232;53.384;-2.732;2023-01-29T04:20:52;5;5;
69123;PMS5003;56232;53.384;-2.732;2023-01-29T04:23:18;6;6;
69123;PMS5003;56232;53.384;-2.732;2023-01-29T04:25:44;5;4;
69123;PMS5003;56232;53.384;-2.732;2023-01-29T04:28:12;3;3;
69123;PMS5003;56232;53.384;-2.732;2023-01-29T04:30:38;7;6;
69123;PMS5003;56232;53.384;-2.732;2023-01-29T04:33:07;4;4;
69123;PMS5003;56232;53.384;-2.732;2023-01-29T04:35:28;3;3;
69123;PMS5003;56232;53.384;-2.732;2023-01-29T04:37:55;4;3;
69123;PMS5003;56232;53.384;-2.732;2023-01-29T04:40:19;5;4;
69123;PMS5003;56232;53.384;-2.732;2023-01-29T04:42:46;5;4;
69123;PMS5003;56232;53.384;-2.732;2023-01-29T04:45:11;4;4;
69123;PMS5003;56232;53.384;-2.732;2023-01-29T04:47:36;4;4;
69123;PMS5003;56232;53.384;-2.732;2023-01-29T04:50:02;5;5;
69123;PMS5003;56232;53.384;-2.732;2023-01-29T04:52:29;4;4;
69123;PMS5003;56232;53.384;-2.732;2023-01-29T04:54:54;4;4;
69123;PMS5003;56232;53.384;-2.732;2023-01-29T04:57:18;4;4;
69123;PMS5003;56232;53.384;-2.732;2023-01-29T04:59:44;6;5;
69123;PMS5003;56232;53.384;-2.732;2023-01-29T05:02:09;4;4;
69123;PMS5003;56232;53.384;-2.732;2023-01-29T05:04:35;5;4;
69123;PMS5003;56232;53.384;-2.732;2023-01-29T05:07:01;5;4;
69123;PMS5003;56232;53.384;-2.732;2023-01-29T05:09:26;6;5;
69123;PMS5003;56232;53.384;-2.732;2023-01-29T05:11:52;5;5;
69123;PMS5003;56232;53.384;-2.732;2023-01-29T05:14:18;6;5;
69123;PMS5003;56232;53.384;-2.732;2023-01-29T05:16:44;4;4;
69123;PMS5003;56232;53.384;-2.732;2023-01-29T05:19:09;4;4;
69123;PMS5003;56232;53.384;-2.732;2023-01-29T05:21:35;5;5;
69123;PMS5003;56232;53.384;-2.732;2023-01-29T05:26:26;5;5;
69123;PMS5003;56232;53.384;-2.732;2023-01-29T05:28:52;4;4;
69123;PMS5003;56232;53.384;-2.732;2023-01-29T05:31:18;5;4;
69123;PMS5003;56232;53.384;-2.732;2023-01-29T05:33:43;5;5;
69123;PMS5003;56232;53.384;-2.732;2023-01-29T05:36:09;6;5;
69123;PMS5003;56232;53.384;-2.732;2023-01-29T05:38:34;4;4;
69123;PMS5003;56232;53.384;-2.732;2023-01-29T05:41:00;5;5;
69123;PMS5003;56232;53.384;-2.732;2023-01-29T05:43:26;5;5;
69123;PMS5003;56232;53.384;-2.732;2023-01-29T05:45:52;5;5;
69123;PMS5003;56232;53.384;-2.732;2023-01-29T05:48:17;4;4;
69123;PMS5003;56232;53.384;-2.732;2023-01-29T05:50:43;5;5;
69123;PMS5003;56232;53.384;-2.732;2023-01-29T05:53:09;6;5;
69123;PMS5003;56232;53.384;-2.732;2023-01-29T05:55:35;3;2;
69123;PMS5003;56232;53.384;-2.732;2023-01-29T05:58:00;5;5;
69123;PMS5003;56232;53.384;-2.732;2023-01-29T06:00:26;5;3;
69123;PMS5003;56232;53.384;-2.732;2023-01-29T06:02:52;5;5;
69123;PMS5003;56232;53.384;-2.732;2023-01-29T06:05:18;3;3;
69123;PMS5003;56232;53.384;-2.732;2023-01-29T06:07:43;4;4;
69123;PMS5003;56232;53.384;-2.732;2023-01-29T06:10:10;4;4;
69123;PMS5003;56232;53.384;-2.732;2023-01-29T06:12:35;4;4;
69123;PMS5003;56232;53.384;-2.732;2023-01-29T06:15:00;5;5;
69123;PMS5003;56232;53.384;-2.732;2023-01-29T06:17:26;6;5;
69123;PMS5003;56232;53.384;-2.732;2023-01-29T06:19:52;7;6;
69123;PMS5003;56232;53.384;-2.732;2023-01-29T06:22:18;5;5;
69123;PMS5003;56232;53.384;-2.732;2023-01-29T06:24:43;6;5;
69123;PMS5003;56232;53.384;-2.732;2023-01-29T06:27:09;5;5;
69123;PMS5003;56232;53.384;-2.732;2023-01-29T06:29:35;4;4;
69123;PMS5003;56232;53.384;-2.732;2023-01-29T06:32:00;6;5;
69123;PMS5003;56232;53.384;-2.732;2023-01-29T06:34:26;6;5;
69123;PMS5003;56232;53.384;-2.732;2023-01-29T06:36:52;5;5;
69123;PMS5003;56232;53.384;-2.732;2023-01-29T06:39:17;6;6;
69123;PMS5003;56232;53.384;-2.732;2023-01-29T06:41:43;5;5;
69123;PMS5003;56232;53.384;-2.732;2023-01-29T06:44:09;4;4;
69123;PMS5003;56232;53.384;-2.732;2023-01-29T06:46:34;5;5;
69123;PMS5003;56232;53.384;-2.732;2023-01-29T06:49:00;6;6;
69123;PMS5003;56232;53.384;-2.732;2023-01-29T06:51:26;5;5;
69123;PMS5003;56232;53.384;-2.732;2023-01-29T06:53:51;6;6;
69123;PMS5003;56232;53.384;-2.732;2023-01-29T06:56:17;6;6;
69123;PMS5003;56232;53.384;-2.732;2023-01-29T06:58:43;5;4;
69123;PMS5003;56232;53.384;-2.732;2023-01-29T07:01:09;6;5;
69123;PMS5003;56232;53.384;-2.732;2023-01-29T07:03:34;6;6;
69123;PMS5003;56232;53.384;-2.732;2023-01-29T07:06:00;7;5;
69123;PMS5003;56232;53.384;-2.732;2023-01-29T07:08:26;6;6;
69123;PMS5003;56232;53.384;-2.732;2023-01-29T07:10:51;7;7;
69123;PMS5003;56232;53.384;-2.732;2023-01-29T07:13:17;4;4;
69123;PMS5003;56232;53.384;-2.732;2023-01-29T07:15:43;6;6;
69123;PMS5003;56232;53.384;-2.732;2023-01-29T07:18:09;5;5;
69123;PMS5003;56232;53.384;-2.732;2023-01-29T07:20:34;6;6;
69123;PMS5003;56232;53.384;-2.732;2023-01-29T07:23:00;9;7;
69123;PMS5003;56232;53.384;-2.732;2023-01-29T07:25:32;9;8;
69123;PMS5003;56232;53.384;-2.732;2023-01-29T07:27:52;6;6;
69123;PMS5003;56232;53.384;-2.732;2023-01-29T07:30:17;7;6;
69123;PMS5003;56232;53.384;-2.732;2023-01-29T07:32:43;5;5;
69123;PMS5003;56232;53.384;-2.732;2023-01-29T07:35:09;5;5;
69123;PMS5003;56232;53.384;-2.732;2023-01-29T07:37:34;4;4;
69123;PMS5003;56232;53.384;-2.732;2023-01-29T07:40:00;6;5;
69123;PMS5003;56232;53.384;-2.732;2023-01-29T07:42:26;6;5;
69123;PMS5003;56232;53.384;-2.732;2023-01-29T07:44:51;9;6;
69123;PMS5003;56232;53.384;-2.732;2023-01-29T07:47:17;5;5;
69123;PMS5003;56232;53.384;-2.732;2023-01-29T07:49:43;5;5;
69123;PMS5003;56232;53.384;-2.732;2023-01-29T07:52:09;5;5;
69123;PMS5003;56232;53.384;-2.732;2023-01-29T07:54:34;5;4;
69123;PMS5003;56232;53.384;-2.732;2023-01-29T07:57:00;3;3;
69123;PMS5003;56232;53.384;-2.732;2023-01-29T07:59:26;6;5;
69123;PMS5003;56232;53.384;-2.732;2023-01-29T08:01:52;7;6;
69123;PMS5003;56232;53.384;-2.732;2023-01-29T08:04:17;6;6;
69123;PMS5003;56232;53.384;-2.732;2023-01-29T08:06:43;7;6;
69123;PMS5003;56232;53.384;-2.732;2023-01-29T08:09:09;6;6;
69123;PMS5003;56232;53.384;-2.732;2023-01-29T08:11:35;7;6;
69123;PMS5003;56232;53.384;-2.732;2023-01-29T08:14:00;9;8;
69123;PMS5003;56232;53.384;-2.732;2023-01-29T08:16:26;8;8;
69123;PMS5003;56232;53.384;-2.732;2023-01-29T08:18:52;7;6;
69123;PMS5003;56232;53.384;-2.732;2023-01-29T08:21:18;7;7;
69123;PMS5003;56232;53.384;-2.732;2023-01-29T08:23:43;7;7;
69123;PMS5003;56232;53.384;-2.732;2023-01-29T08:26:09;7;6;
69123;PMS5003;56232;53.384;-2.732;2023-01-29T08:28:35;5;4;
69123;PMS5003;56232;53.384;-2.732;2023-01-29T08:31:00;6;6;
69123;PMS5003;56232;53.384;-2.732;2023-01-29T08:33:26;6;6;
69123;PMS5003;56232;53.384;-2.732;2023-01-29T08:35:52;8;8;
69123;PMS5003;56232;53.384;-2.732;2023-01-29T08:38:17;6;6;
69123;PMS5003;56232;53.384;-2.732;2023-01-29T08:40:43;8;8;
69123;PMS5003;56232;53.384;-2.732;2023-01-29T08:43:09;5;5;
69123;PMS5003;56232;53.384;-2.732;2023-01-29T08:45:35;8;8;
69123;PMS5003;56232;53.384;-2.732;2023-01-29T08:48:00;6;6;
69123;PMS5003;56232;53.384;-2.732;2023-01-29T08:50:26;6;6;
69123;PMS5003;56232;53.384;-2.732;2023-01-29T08:52:52;10;7;
69123;PMS5003;56232;53.384;-2.732;2023-01-29T08:55:17;5;5;
69123;PMS5003;56232;53.384;-2.732;2023-01-29T08:57:43;5;5;
69123;PMS5003;56232;53.384;-2.732;2023-01-29T09:00:09;8;7;
69123;PMS5003;56232;53.384;-2.732;2023-01-29T09:02:34;6;6;
69123;PMS5003;56232;53.384;-2.732;2023-01-29T09:05:00;4;4;
69123;PMS5003;56232;53.384;-2.732;2023-01-29T09:07:27;6;5;
69123;PMS5003;56232;53.384;-2.732;2023-01-29T09:09:51;6;5;
69123;PMS5003;56232;53.384;-2.732;2023-01-29T09:12:17;5;5;
69123;PMS5003;56232;53.384;-2.732;2023-01-29T09:14:42;11;7;
69123;PMS5003;56232;53.384;-2.732;2023-01-29T09:17:08;4;4;
69123;PMS5003;56232;53.384;-2.732;2023-01-29T09:19:33;6;6;
69123;PMS5003;56232;53.384;-2.732;2023-01-29T09:21:59;6;5;
69123;PMS5003;56232;53.384;-2.732;2023-01-29T09:24:24;4;3;
69123;PMS5003;56232;53.384;-2.732;2023-01-29T09:26:50;5;5;
69123;PMS5003;56232;53.384;-2.732;2023-01-29T09:29:16;6;6;
69123;PMS5003;56232;53.384;-2.732;2023-01-29T09:31:42;8;7;
69123;PMS5003;56232;53.384;-2.732;2023-01-29T09:34:07;4;4;
69123;PMS5003;56232;53.384;-2.732;2023-01-29T09:36:33;3;3;
69123;PMS5003;56232;53.384;-2.732;2023-01-29T09:38:59;4;4;
69123;PMS5003;56232;53.384;-2.732;2023-01-29T09:41:28;4;4;
69123;PMS5003;56232;53.384;-2.732;2023-01-29T09:43:56;3;3;
69123;PMS5003;56232;53.384;-2.732;2023-01-29T09:46:18;4;4;
69123;PMS5003;56232;53.384;-2.732;2023-01-29T09:48:41;8;8;
69123;PMS5003;56232;53.384;-2.732;2023-01-29T09:51:10;3;3;
69123;PMS5003;56232;53.384;-2.732;2023-01-29T09:53:34;2;2;
69123;PMS5003;56232;53.384;-2.732;2023-01-29T09:56:00;3;3;
69123;PMS5003;56232;53.384;-2.732;2023-01-29T09:58:30;3;3;
69123;PMS5003;56232;53.384;-2.732;2023-01-29T10:00:52;2;2;
69123;PMS5003;56232;53.384;-2.732;2023-01-29T10:03:20;3;3;
69123;PMS5003;56232;53.384;-2.732;2023-01-29T10:05:50;3;3;
69123;PMS5003;56232;53.384;-2.732;2023-01-29T10:08:13;4;3;
69123;PMS5003;56232;53.384;-2.732;2023-01-29T10:10:36;3;3;
69123;PMS5003;56232;53.384;-2.732;2023-01-29T10:13:00;4;4;
69123;PMS5003;56232;53.384;-2.732;2023-01-29T10:15:27;4;3;
69123;PMS5003;56232;53.384;-2.732;2023-01-29T10:17:53;4;4;
69123;PMS5003;56232;53.384;-2.732;2023-01-29T10:22:43;3;3;
69123;PMS5003;56232;53.384;-2.732;2023-01-29T10:25:09;3;3;
69123;PMS5003;56232;53.384;-2.732;2023-01-29T10:27:32;2;2;
69123;PMS5003;56232;53.384;-2.732;2023-01-29T10:30:05;2;2;
69123;PMS5003;56232;53.384;-2.732;2023-01-29T10:32:23;6;3;
69123;PMS5003;56232;53.384;-2.732;2023-01-29T10:34:48;4;4;
69123;PMS5003;56232;53.384;-2.732;2023-01-29T10:37:15;3;3;
69123;PMS5003;56232;53.384;-2.732;2023-01-29T10:39:39;5;3;
69123;PMS5003;56232;53.384;-2.732;2023-01-29T10:42:13;3;3;
69123;PMS5003;56232;53.384;-2.732;2023-01-29T10:44:35;9;7;
69123;PMS5003;56232;53.384;-2.732;2023-01-29T10:46:59;2;2;
69123;PMS5003;56232;53.384;-2.732;2023-01-29T10:49:26;4;3;
69123;PMS5003;56232;53.384;-2.732;2023-01-29T10:51:51;5;3;
69123;PMS5003;56232;53.384;-2.732;2023-01-29T10:54:17;3;3;
69123;PMS5003;56232;53.384;-2.732;2023-01-29T10:56:47;2;2;
69123;PMS5003;56232;53.384;-2.732;2023-01-29T10:59:05;4;3;
69123;PMS5003;56232;53.384;-2.732;2023-01-29T11:01:30;3;2;
69123;PMS5003;56232;53.384;-2.732;2023-01-29T11:03:56;2;2;
69123;PMS5003;56232;53.384;-2.732;2023-01-29T11:06:22;3;3;
69123;PMS5003;56232;53.384;-2.732;2023-01-29T11:08:48;5;5;
69123;PMS5003;56232;53.384;-2.732;2023-01-29T11:11:13;2;1;
69123;PMS5003;56232;53.384;-2.732;2023-01-29T11:13:40;1;1;
69123;PMS5003;56232;53.384;-2.732;2023-01-29T11:16:05;0;0;
69123;PMS5003;56232;53.384;-2.732;2023-01-29T11:20:59;1;0;
69123;PMS5003;56232;53.384;-2.732;2023-01-29T11:23:24;1;1;
69123;PMS5003;56232;53.384;-2.732;2023-01-29T11:25:50;1;0;
69123;PMS5003;56232;53.384;-2.732;2023-01-29T11:28:13;2;1;
69123;PMS5003;56232;53.384;-2.732;2023-01-29T11:30:38;1;1;
69123;PMS5003;56232;53.384;-2.732;2023-01-29T11:33:05;0;0;
69123;PMS5003;56232;53.384;-2.732;2023-01-29T11:35:30;1;1;
69123;PMS5003;56232;53.384;-2.732;2023-01-29T11:37:57;2;0;
69123;PMS5003;56232;53.384;-2.732;2023-01-29T11:42:47;1;1;
69123;PMS5003;56232;53.384;-2.732;2023-01-29T11:47:38;0;0;
69123;PMS5003;56232;53.384;-2.732;2023-01-29T11:50:04;3;1;
69123;PMS5003;56232;53.384;-2.732;2023-01-29T11:52:33;0;0;
69123;PMS5003;56232;53.384;-2.732;2023-01-29T11:55:01;1;1;
69123;PMS5003;56232;53.384;-2.732;2023-01-29T11:57:23;1;1;
69123;PMS5003;56232;53.384;-2.732;2023-01-29T11:59:48;2;2;
69123;PMS5003;56232;53.384;-2.732;2023-01-29T12:02:17;3;2;
69123;PMS5003;56232;53.384;-2.732;2023-01-29T12:04:38;1;1;
69123;PMS5003;56232;53.384;-2.732;2023-01-29T12:07:04;1;0;
69123;PMS5003;56232;53.384;-2.732;2023-01-29T12:09:29;1;1;
69123;PMS5003;56232;53.384;-2.732;2023-01-29T12:11:55;1;1;
69123;PMS5003;56232;53.384;-2.732;2023-01-29T12:14:23;1;1;
69123;PMS5003;56232;53.384;-2.732;2023-01-29T12:16:48;2;2;
69123;PMS5003;56232;53.384;-2.732;2023-01-29T12:19:13;1;1;
69123;PMS5003;56232;53.384;-2.732;2023-01-29T12:21:40;2;1;
69123;PMS5003;56232;53.384;-2.732;2023-01-29T12:24:06;2;2;
69123;PMS5003;56232;53.384;-2.732;2023-01-29T12:26:30;1;1;
69123;PMS5003;56232;53.384;-2.732;2023-01-29T12:28:58;2;2;
69123;PMS5003;56232;53.384;-2.732;2023-01-29T12:31:24;1;1;
69123;PMS5003;56232;53.384;-2.732;2023-01-29T12:33:48;2;2;
69123;PMS5003;56232;53.384;-2.732;2023-01-29T12:36:13;2;2;
69123;PMS5003;56232;53.384;-2.732;2023-01-29T12:38:38;3;1;
69123;PMS5003;56232;53.384;-2.732;2023-01-29T12:41:04;0;0;
69123;PMS5003;56232;53.384;-2.732;2023-01-29T12:43:30;2;1;
69123;PMS5003;56232;53.384;-2.732;2023-01-29T12:45:55;5;5;
69123;PMS5003;56232;53.384;-2.732;2023-01-29T12:48:26;4;4;
69123;PMS5003;56232;53.384;-2.732;2023-01-29T12:50:46;3;2;
69123;PMS5003;56232;53.384;-2.732;2023-01-29T12:53:15;3;3;
69123;PMS5003;56232;53.384;-2.732;2023-01-29T12:55:38;2;2;
69123;PMS5003;56232;53.384;-2.732;2023-01-29T12:58:04;3;2;
69123;PMS5003;56232;53.384;-2.732;2023-01-29T13:00:31;2;2;
69123;PMS5003;56232;53.384;-2.732;2023-01-29T13:02:58;2;2;
69123;PMS5003;56232;53.384;-2.732;2023-01-29T13:05:21;3;3;
69123;PMS5003;56232;53.384;-2.732;2023-01-29T13:07:46;0;0;
69123;PMS5003;56232;53.384;-2.732;2023-01-29T13:10:12;0;0;
69123;PMS5003;56232;53.384;-2.732;2023-01-29T13:12:37;1;1;
69123;PMS5003;56232;53.384;-2.732;2023-01-29T13:15:04;1;1;
69123;PMS5003;56232;53.384;-2.732;2023-01-29T13:17:30;2;2;
69123;PMS5003;56232;53.384;-2.732;2023-01-29T13:19:55;1;1;
69123;PMS5003;56232;53.384;-2.732;2023-01-29T13:22:21;2;2;
69123;PMS5003;56232;53.384;-2.732;2023-01-29T13:24:45;2;2;
69123;PMS5003;56232;53.384;-2.732;2023-01-29T13:27:18;3;3;
69123;PMS5003;56232;53.384;-2.732;2023-01-29T13:29:37;4;4;
69123;PMS5003;56232;53.384;-2.732;2023-01-29T13:32:02;2;2;
69123;PMS5003;56232;53.384;-2.732;2023-01-29T13:34:28;3;3;
69123;PMS5003;56232;53.384;-2.732;2023-01-29T13:36:55;4;3;
69123;PMS5003;56232;53.384;-2.732;2023-01-29T13:39:22;2;2;
69123;PMS5003;56232;53.384;-2.732;2023-01-29T13:41:45;2;2;
69123;PMS5003;56232;53.384;-2.732;2023-01-29T13:46:38;2;2;
69123;PMS5003;56232;53.384;-2.732;2023-01-29T13:49:02;2;2;
69123;PMS5003;56232;53.384;-2.732;2023-01-29T13:51:29;1;1;
69123;PMS5003;56232;53.384;-2.732;2023-01-29T13:53:55;2;2;
69123;PMS5003;56232;53.384;-2.732;2023-01-29T14:01:11;2;2;
69123;PMS5003;56232;53.384;-2.732;2023-01-29T14:06:02;3;3;
69123;PMS5003;56232;53.384;-2.732;2023-01-29T14:15:44;6;6;
69123;PMS5003;56232;53.384;-2.732;2023-01-29T14:18:13;2;2;
69123;PMS5003;56232;53.384;-2.732;2023-01-29T14:20:36;1;1;
69123;PMS5003;56232;53.384;-2.732;2023-01-29T14:23:01;2;1;
69123;PMS5003;56232;53.384;-2.732;2023-01-29T14:25:27;1;1;
69123;PMS5003;56232;53.384;-2.732;2023-01-29T14:27:52;1;1;
69123;PMS5003;56232;53.384;-2.732;2023-01-29T14:30:18;1;1;
69123;PMS5003;56232;53.384;-2.732;2023-01-29T14:32:45;0;0;
69123;PMS5003;56232;53.384;-2.732;2023-01-29T14:35:15;1;1;
69123;PMS5003;56232;53.384;-2.732;2023-01-29T14:37:35;1;1;
69123;PMS5003;56232;53.384;-2.732;2023-01-29T14:42:27;1;1;
69123;PMS5003;56232;53.384;-2.732;2023-01-29T14:47:18;2;1;
69123;PMS5003;56232;53.384;-2.732;2023-01-29T14:49:47;1;0;
69123;PMS5003;56232;53.384;-2.732;2023-01-29T14:52:09;1;1;
69123;PMS5003;56232;53.384;-2.732;2023-01-29T14:54:38;3;1;
69123;PMS5003;56232;53.384;-2.732;2023-01-29T14:57:07;1;1;
69123;PMS5003;56232;53.384;-2.732;2023-01-29T14:59:28;1;1;
69123;PMS5003;56232;53.384;-2.732;2023-01-29T15:01:52;1;1;
69123;PMS5003;56232;53.384;-2.732;2023-01-29T15:04:24;2;2;
69123;PMS5003;56232;53.384;-2.732;2023-01-29T15:06:43;2;1;
69123;PMS5003;56232;53.384;-2.732;2023-01-29T15:09:10;1;0;
69123;PMS5003;56232;53.384;-2.732;2023-01-29T15:11:42;1;1;
69123;PMS5003;56232;53.384;-2.732;2023-01-29T15:14:04;1;1;
69123;PMS5003;56232;53.384;-2.732;2023-01-29T15:16:28;1;1;
69123;PMS5003;56232;53.384;-2.732;2023-01-29T15:18:51;2;2;
69123;PMS5003;56232;53.384;-2.732;2023-01-29T15:21:17;3;3;
69123;PMS5003;56232;53.384;-2.732;2023-01-29T15:23:43;2;2;
69123;PMS5003;56232;53.384;-2.732;2023-01-29T15:26:08;2;2;
69123;PMS5003;56232;53.384;-2.732;2023-01-29T15:28:34;2;2;
69123;PMS5003;56232;53.384;-2.732;2023-01-29T15:30:59;2;2;
69123;PMS5003;56232;53.384;-2.732;2023-01-29T15:33:25;1;1;
69123;PMS5003;56232;53.384;-2.732;2023-01-29T15:35:54;1;1;
69123;PMS5003;56232;53.384;-2.732;2023-01-29T15:38:17;1;1;
69123;PMS5003;56232;53.384;-2.732;2023-01-29T15:45:33;1;1;
69123;PMS5003;56232;53.384;-2.732;2023-01-29T15:48:00;2;2;
69123;PMS5003;56232;53.384;-2.732;2023-01-29T15:50:24;3;3;
69123;PMS5003;56232;53.384;-2.732;2023-01-29T15:52:50;1;1;
69123;PMS5003;56232;53.384;-2.732;2023-01-29T15:55:16;2;1;
69123;PMS5003;56232;53.384;-2.732;2023-01-29T15:57:41;2;2;
69123;PMS5003;56232;53.384;-2.732;2023-01-29T16:00:08;1;1;
69123;PMS5003;56232;53.384;-2.732;2023-01-29T16:02:36;2;2;
69123;PMS5003;56232;53.384;-2.732;2023-01-29T16:04:58;2;2;
69123;PMS5003;56232;53.384;-2.732;2023-01-29T16:07:29;1;1;
69123;PMS5003;56232;53.384;-2.732;2023-01-29T16:09:49;2;2;
69123;PMS5003;56232;53.384;-2.732;2023-01-29T16:12:16;2;1;
69123;PMS5003;56232;53.384;-2.732;2023-01-29T16:14:47;2;2;
69123;PMS5003;56232;53.384;-2.732;2023-01-29T16:19:32;4;4;
69123;PMS5003;56232;53.384;-2.732;2023-01-29T16:22:03;3;3;
69123;PMS5003;56232;53.384;-2.732;2023-01-29T16:24:23;1;1;
69123;PMS5003;56232;53.384;-2.732;2023-01-29T16:26:50;2;2;
69123;PMS5003;56232;53.384;-2.732;2023-01-29T16:29:16;2;2;
69123;PMS5003;56232;53.384;-2.732;2023-01-29T16:31:46;2;2;
69123;PMS5003;56232;53.384;-2.732;2023-01-29T16:34:07;2;2;
69123;PMS5003;56232;53.384;-2.732;2023-01-29T16:36:37;3;3;
69123;PMS5003;56232;53.384;-2.732;2023-01-29T16:38:58;2;2;
69123;PMS5003;56232;53.384;-2.732;2023-01-29T16:41:27;3;3;
69123;PMS5003;56232;53.384;-2.732;2023-01-29T16:43:50;4;4;
69123;PMS5003;56232;53.384;-2.732;2023-01-29T16:46:18;6;5;
69123;PMS5003;56232;53.384;-2.732;2023-01-29T16:48:41;3;3;
69123;PMS5003;56232;53.384;-2.732;2023-01-29T16:51:11;6;5;
69123;PMS5003;56232;53.384;-2.732;2023-01-29T16:53:32;2;2;
69123;PMS5003;56232;53.384;-2.732;2023-01-29T16:56:00;4;4;
69123;PMS5003;56232;53.384;-2.732;2023-01-29T16:58:23;4;4;
69123;PMS5003;56232;53.384;-2.732;2023-01-29T17:00:49;4;3;